createdAt,value
2023-03-13T00:01:31.286Z,2.30
2023-03-13T00:03:59.706Z,2.10
2023-03-13T00:06:32.860Z,2.37
2023-03-13T00:09:02.250Z,2.03
2023-03-13T00:11:32.209Z,2.50
2023-03-13T00:14:03.776Z,2.77
2023-03-13T00:16:34.499Z,2.17
2023-03-13T00:19:03.297Z,1.83
2023-03-13T00:21:32.137Z,1.97
2023-03-13T00:24:01.836Z,2.40
2023-03-13T00:26:32.008Z,2.00
2023-03-13T00:29:00.487Z,1.90
2023-03-13T00:31:31.482Z,1.97
2023-03-13T00:34:02.336Z,2.13
2023-03-13T00:36:32.605Z,2.03
2023-03-13T00:39:03.907Z,2.03
2023-03-13T00:41:34.825Z,2.13
2023-03-13T00:44:03.781Z,2.30
2023-03-13T00:46:32.700Z,1.87
2023-03-13T00:49:01.092Z,2.73
2023-03-13T00:51:30.136Z,2.23
2023-03-13T00:54:01.062Z,2.37
2023-03-13T00:56:30.410Z,1.90
2023-03-13T00:59:02.392Z,2.03
2023-03-13T01:01:32.974Z,1.87
2023-03-13T01:04:04.840Z,2.10
2023-03-13T01:06:36.542Z,2.03
2023-03-13T01:09:06.923Z,3.10
2023-03-13T01:11:39.167Z,2.33
2023-03-13T01:14:12.210Z,2.13
2023-03-13T01:16:41.604Z,2.13
2023-03-13T01:19:13.475Z,1.93
2023-03-13T01:21:44.206Z,2.13
2023-03-13T01:24:13.432Z,2.30
2023-03-13T01:26:41.893Z,1.50
2023-03-13T01:29:11.604Z,1.93
2023-03-13T01:31:40.922Z,2.00
2023-03-13T01:34:12.081Z,1.47
2023-03-13T01:36:40.472Z,1.80
2023-03-13T01:39:09.029Z,2.03
2023-03-13T01:41:38.875Z,1.87
2023-03-13T01:44:20.121Z,1.83
2023-03-13T01:46:49.887Z,2.00
2023-03-13T01:49:33.343Z,2.30
2023-03-13T01:52:19.148Z,1.67
2023-03-13T01:55:10.990Z,2.30
2023-03-13T01:57:46.282Z,2.07
2023-03-13T02:00:20.854Z,1.83
2023-03-13T02:02:57.248Z,2.27
2023-03-13T02:05:28.903Z,2.00
2023-03-13T02:08:02.578Z,1.50
2023-03-13T02:10:32.727Z,1.50
2023-03-13T02:13:04.409Z,1.70
2023-03-13T02:15:33.293Z,1.37
2023-03-13T02:18:03.181Z,1.93
2023-03-13T02:20:31.551Z,1.70
2023-03-13T02:23:05.149Z,1.90
2023-03-13T02:25:43.404Z,1.80
2023-03-13T02:28:15.633Z,1.50
2023-03-13T02:30:46.138Z,1.83
2023-03-13T02:33:15.669Z,1.50
2023-03-13T02:35:45.664Z,1.47
2023-03-13T02:38:23.304Z,1.90
2023-03-13T02:40:54.612Z,1.67
2023-03-13T02:43:30.979Z,1.90
2023-03-13T02:46:07.628Z,1.50
2023-03-13T02:48:41.980Z,1.53
2023-03-13T02:51:17.864Z,1.50
2023-03-13T02:53:47.589Z,1.93
2023-03-13T02:56:21.587Z,1.37
2023-03-13T02:58:50.998Z,1.70
2023-03-13T03:01:23.572Z,1.60
2023-03-13T03:03:52.747Z,1.43
2023-03-13T03:06:21.189Z,1.77
2023-03-13T03:08:50.491Z,1.43
2023-03-13T03:11:21.089Z,1.40
2023-03-13T03:13:54.647Z,1.57
2023-03-13T03:16:23.811Z,1.50
2023-03-13T03:18:52.202Z,1.80
2023-03-13T03:21:21.403Z,1.53
2023-03-13T03:23:49.786Z,1.60
2023-03-13T03:26:19.851Z,1.60
2023-03-13T03:28:48.356Z,1.50
2023-03-13T03:31:17.538Z,1.30
2023-03-13T03:33:47.164Z,1.40
2023-03-13T03:36:20.542Z,1.33
2023-03-13T03:38:50.213Z,1.30
2023-03-13T03:41:23.341Z,1.33
2023-03-13T03:43:51.842Z,1.63
2023-03-13T03:46:24.749Z,1.67
2023-03-13T03:48:53.479Z,1.90
2023-03-13T03:51:23.537Z,1.30
2023-03-13T03:53:52.102Z,1.57
2023-03-13T03:56:21.986Z,1.03
2023-03-13T03:58:55.236Z,1.30
2023-03-13T04:01:43.137Z,1.37
2023-03-13T04:04:11.866Z,1.23
2023-03-13T04:06:42.966Z,1.53
2023-03-13T04:09:12.258Z,1.20
2023-03-13T04:11:42.064Z,1.40
2023-03-13T04:14:11.561Z,0.90
2023-03-13T04:16:40.042Z,1.53
2023-03-13T04:19:08.437Z,1.50
2023-03-13T04:21:37.195Z,1.00
2023-03-13T04:24:10.722Z,1.10
2023-03-13T04:26:42.961Z,1.10
2023-03-13T04:29:11.395Z,1.03
2023-03-13T04:31:49.294Z,1.00
2023-03-13T04:34:37.990Z,1.00
2023-03-13T04:37:14.864Z,1.20
2023-03-13T04:40:15.774Z,1.70
2023-03-13T04:43:05.448Z,1.07
2023-03-13T04:45:36.358Z,1.60
2023-03-13T04:48:25.107Z,1.40
2023-03-13T04:51:24.834Z,1.40
2023-03-13T04:54:11.866Z,1.30
2023-03-13T04:56:58.793Z,1.20
2023-03-13T04:59:41.260Z,1.00
2023-03-13T05:02:25.448Z,0.77
2023-03-13T05:05:12.601Z,1.00
2023-03-13T05:08:03.090Z,1.00
2023-03-13T05:10:38.175Z,1.00
2023-03-13T05:13:18.626Z,0.90
2023-03-13T05:15:54.258Z,1.00
2023-03-13T05:18:25.487Z,0.80
2023-03-13T05:21:23.058Z,1.30
2023-03-13T05:24:02.925Z,0.87
2023-03-13T05:26:49.976Z,1.10
2023-03-13T05:29:31.043Z,0.80
2023-03-13T05:32:12.620Z,1.10
2023-03-13T05:34:59.295Z,1.00
2023-03-13T05:37:46.711Z,1.13
2023-03-13T05:40:33.407Z,1.00
2023-03-13T05:43:24.862Z,1.17
2023-03-13T05:46:25.671Z,1.60
2023-03-13T05:49:20.480Z,1.83
2023-03-13T05:52:00.559Z,2.80
2023-03-13T05:54:51.730Z,2.10
2023-03-13T05:57:25.997Z,1.17
2023-03-13T06:00:29.844Z,1.30
2023-03-13T06:03:20.869Z,1.00
2023-03-13T06:05:59.386Z,1.40
2023-03-13T06:08:41.865Z,0.97
2023-03-13T06:11:10.773Z,0.70
2023-03-13T06:13:39.612Z,0.70
2023-03-13T06:16:37.129Z,0.90
2023-03-13T06:19:20.875Z,0.90
2023-03-13T06:21:50.583Z,0.80
2023-03-13T06:24:19.109Z,0.70
2023-03-13T06:26:49.968Z,0.57
2023-03-13T06:29:18.822Z,1.20
2023-03-13T06:31:47.380Z,0.80
2023-03-13T06:34:16.204Z,1.80
2023-03-13T06:36:44.855Z,2.17
2023-03-13T06:39:14.930Z,1.70
2023-03-13T06:41:43.293Z,0.93
2023-03-13T06:44:11.789Z,1.17
2023-03-13T06:46:40.224Z,0.67
2023-03-13T06:49:08.691Z,1.20
2023-03-13T06:51:37.141Z,0.70
2023-03-13T06:54:05.715Z,0.60
2023-03-13T06:56:35.484Z,0.90
2023-03-13T06:59:04.399Z,0.60
2023-03-13T07:01:32.802Z,0.57
2023-03-13T07:04:01.375Z,0.60
2023-03-13T07:06:29.828Z,0.90
2023-03-13T07:08:58.291Z,0.60
2023-03-13T07:11:26.717Z,0.67
2023-03-13T07:14:10.032Z,0.70
2023-03-13T07:16:44.085Z,0.43
2023-03-13T07:19:12.516Z,0.70
2023-03-13T07:21:40.984Z,0.60
2023-03-13T07:24:09.729Z,0.60
2023-03-13T07:26:38.890Z,0.80
2023-03-13T07:29:08.749Z,0.80
2023-03-13T07:31:37.269Z,0.87
2023-03-13T07:34:05.842Z,0.50
2023-03-13T07:36:35.609Z,0.70
2023-03-13T07:39:04.074Z,0.57
2023-03-13T07:41:35.061Z,0.60
2023-03-13T07:44:03.561Z,0.50
2023-03-13T07:46:33.441Z,0.50
2023-03-13T07:49:01.868Z,0.60
2023-03-13T07:51:42.520Z,0.67
2023-03-13T07:54:12.182Z,0.63
2023-03-13T07:56:41.440Z,0.60
2023-03-13T07:59:10.268Z,0.70
2023-03-13T08:01:39.984Z,0.93
2023-03-13T08:04:08.782Z,0.87
2023-03-13T08:06:37.195Z,0.70
2023-03-13T08:09:06.778Z,0.53
2023-03-13T08:11:35.786Z,0.80
2023-03-13T08:14:04.170Z,0.50
2023-03-13T08:16:35.868Z,0.60
2023-03-13T08:19:06.695Z,0.60
2023-03-13T08:21:36.709Z,0.80
2023-03-13T08:24:08.159Z,0.70
2023-03-13T08:26:39.369Z,1.00
2023-03-13T08:29:10.312Z,0.60
2023-03-13T08:31:43.882Z,0.80
2023-03-13T08:34:14.970Z,0.63
2023-03-13T08:36:44.635Z,0.93
2023-03-13T08:39:15.460Z,1.00
2023-03-13T08:41:43.953Z,0.90
2023-03-13T08:44:14.772Z,0.80
2023-03-13T08:46:44.049Z,0.80
2023-03-13T08:49:17.511Z,1.00
2023-03-13T08:51:46.106Z,0.70
2023-03-13T08:54:14.480Z,1.27
2023-03-13T08:56:43.655Z,2.00
2023-03-13T08:59:12.664Z,1.23
2023-03-13T09:01:41.109Z,0.77
2023-03-13T09:04:09.569Z,1.23
2023-03-13T09:06:40.287Z,0.70
2023-03-13T09:09:09.768Z,1.60
2023-03-13T09:11:39.356Z,1.40
2023-03-13T09:14:08.864Z,0.90
2023-03-13T09:16:37.244Z,0.70
2023-03-13T09:19:05.596Z,0.90
2023-03-13T09:21:35.923Z,0.77
2023-03-13T09:24:06.207Z,1.17
2023-03-13T09:26:34.511Z,0.90
2023-03-13T09:29:03.109Z,0.83
2023-03-13T09:31:34.344Z,0.73
2023-03-13T09:34:03.590Z,1.20
2023-03-13T09:36:31.925Z,1.23
2023-03-13T09:39:02.110Z,1.10
2023-03-13T09:41:40.417Z,0.80
2023-03-13T09:44:15.570Z,0.90
2023-03-13T09:46:50.166Z,1.00
2023-03-13T09:49:32.600Z,1.07
2023-03-13T09:52:11.882Z,0.90
2023-03-13T09:54:45.332Z,1.07
2023-03-13T09:57:25.623Z,0.90
2023-03-13T09:59:59.625Z,1.00
2023-03-13T10:02:33.917Z,0.83
2023-03-13T10:05:13.528Z,0.70
2023-03-13T10:07:42.067Z,0.60
2023-03-13T10:10:18.080Z,0.60
2023-03-13T10:12:50.028Z,0.70
2023-03-13T10:15:35.053Z,1.13
2023-03-13T10:18:17.528Z,0.77
2023-03-13T10:20:50.194Z,1.00
2023-03-13T10:23:25.794Z,0.80
2023-03-13T10:25:54.700Z,1.00
2023-03-13T10:28:24.438Z,0.80
2023-03-13T10:30:58.675Z,1.07
2023-03-13T10:33:29.275Z,0.97
2023-03-13T10:36:10.316Z,1.00
2023-03-13T10:38:50.549Z,0.70
2023-03-13T10:41:38.551Z,0.87
2023-03-13T10:44:17.052Z,0.80
2023-03-13T10:46:48.180Z,0.90
2023-03-13T10:49:19.533Z,1.03
2023-03-13T10:51:50.461Z,1.00
2023-03-13T10:54:25.087Z,0.80
2023-03-13T10:56:56.045Z,1.60
2023-03-13T10:59:27.910Z,1.03
2023-03-13T11:02:02.376Z,1.10
2023-03-13T11:04:33.884Z,0.80
2023-03-13T11:07:05.918Z,0.97
2023-03-13T11:09:34.328Z,0.90
2023-03-13T11:12:10.852Z,0.90
2023-03-13T11:14:42.742Z,1.40
2023-03-13T11:17:24.745Z,1.10
2023-03-13T11:20:06.521Z,0.80
2023-03-13T11:23:12.758Z,0.97
2023-03-13T11:25:48.562Z,1.10
2023-03-13T11:28:41.021Z,1.27
2023-03-13T11:31:15.690Z,1.00
2023-03-13T11:33:57.559Z,1.05
2023-03-13T11:36:35.674Z,1.35
2023-03-13T11:39:39.026Z,1.20
2023-03-13T11:42:23.347Z,1.03
2023-03-13T11:45:00.705Z,1.27
2023-03-13T11:47:46.466Z,0.67
2023-03-13T11:50:32.285Z,0.88
2023-03-13T11:53:16.594Z,1.10
2023-03-13T11:56:00.507Z,1.00
2023-03-13T11:58:53.912Z,0.95
2023-03-13T12:01:24.606Z,0.80
2023-03-13T12:04:00.796Z,1.15
2023-03-13T12:06:34.252Z,1.33
2023-03-13T12:09:12.105Z,1.33
2023-03-13T12:11:47.315Z,0.90
2023-03-13T12:14:22.087Z,1.05
2023-03-13T12:16:57.218Z,1.00
2023-03-13T12:19:32.850Z,1.20
2023-03-13T12:22:15.783Z,1.30
2023-03-13T12:24:53.510Z,1.00
2023-03-13T12:27:32.675Z,0.95
2023-03-13T12:30:07.548Z,1.38
2023-03-13T12:32:41.481Z,2.10
2023-03-13T12:35:23.065Z,1.98
2023-03-13T12:37:56.678Z,1.42
2023-03-13T12:40:31.201Z,1.40
2023-03-13T12:43:07.314Z,1.08
2023-03-13T12:45:46.957Z,1.02
2023-03-13T12:48:28.897Z,1.38
2023-03-13T12:51:24.595Z,0.90
2023-03-13T12:54:46.828Z,0.90
2023-03-13T12:57:59.464Z,0.85
2023-03-13T13:00:31.290Z,0.90
2023-03-13T13:03:21.061Z,1.02
2023-03-13T13:06:12.970Z,1.13
2023-03-13T13:08:44.205Z,1.10
2023-03-13T13:11:55.214Z,0.80
2023-03-13T13:15:18.649Z,0.90
2023-03-13T13:18:04.351Z,0.98
2023-03-13T13:20:38.731Z,0.95
2023-03-13T13:23:34.019Z,0.85
2023-03-13T13:26:51.140Z,0.90
2023-03-13T13:29:59.629Z,1.02
2023-03-13T13:32:47.536Z,1.30
2023-03-13T13:35:35.856Z,1.40
2023-03-13T13:38:36.919Z,1.10
2023-03-13T13:41:26.683Z,0.88
2023-03-13T13:44:29.925Z,1.35
2023-03-13T13:47:02.064Z,1.10
2023-03-13T13:49:37.726Z,0.90
2023-03-13T13:52:40.634Z,1.30
2023-03-13T13:55:34.900Z,0.68
2023-03-13T13:58:06.722Z,1.15
2023-03-13T14:00:42.336Z,1.10
2023-03-13T14:03:23.355Z,0.98
2023-03-13T14:05:55.830Z,1.15
2023-03-13T14:08:30.592Z,0.90
2023-03-13T14:11:22.778Z,0.85
2023-03-13T14:14:14.890Z,1.10
2023-03-13T14:16:47.437Z,1.25
2023-03-13T14:19:29.387Z,0.90
2023-03-13T14:22:02.934Z,1.13
2023-03-13T14:24:31.283Z,1.10
2023-03-13T14:27:01.376Z,0.98
2023-03-13T14:29:30.038Z,0.98
2023-03-13T14:32:00.618Z,0.90
2023-03-13T14:34:32.570Z,0.90
2023-03-13T14:37:17.670Z,0.73
2023-03-13T14:39:48.944Z,1.00
2023-03-13T14:42:20.183Z,0.93
2023-03-13T14:44:50.342Z,0.90
2023-03-13T14:47:25.390Z,0.90
2023-03-13T14:49:59.218Z,1.17
2023-03-13T14:52:29.501Z,0.90
2023-03-13T14:55:02.280Z,0.73
2023-03-13T14:57:33.456Z,1.10
2023-03-13T15:00:33.035Z,0.75
2023-03-13T15:03:27.316Z,1.13
2023-03-13T15:06:24.324Z,0.80
2023-03-13T15:09:21.863Z,1.00
2023-03-13T15:11:59.593Z,0.85
2023-03-13T15:14:38.357Z,0.95
2023-03-13T15:17:19.282Z,0.82
2023-03-13T15:19:55.479Z,0.90
2023-03-13T15:22:30.108Z,0.90
2023-03-13T15:25:07.514Z,0.73
2023-03-13T15:27:36.744Z,0.80
2023-03-13T15:30:08.463Z,0.80
2023-03-13T15:32:40.272Z,1.00
2023-03-13T15:35:27.253Z,0.88
2023-03-13T15:38:37.807Z,0.90
2023-03-13T15:41:07.524Z,0.80
2023-03-13T15:43:36.341Z,0.88
2023-03-13T15:46:11.044Z,0.90
2023-03-13T15:48:40.668Z,0.75
2023-03-13T15:51:14.544Z,0.70
2023-03-13T15:53:44.340Z,0.90
2023-03-13T15:56:17.109Z,1.20
2023-03-13T15:58:47.612Z,1.10
2023-03-13T16:01:18.997Z,1.60
2023-03-13T16:03:47.507Z,0.70
2023-03-13T16:06:20.652Z,0.60
2023-03-13T16:08:49.071Z,0.77
2023-03-13T16:11:18.393Z,0.60
2023-03-13T16:13:46.804Z,0.70
2023-03-13T16:16:21.508Z,0.68
2023-03-13T16:18:50.967Z,0.52
2023-03-13T16:21:22.824Z,1.20
2023-03-13T16:23:51.285Z,0.90
2023-03-13T16:26:22.087Z,0.70
2023-03-13T16:28:52.012Z,0.47
2023-03-13T16:31:24.374Z,0.60
2023-03-13T16:33:54.114Z,0.80
2023-03-13T16:36:25.148Z,0.45
2023-03-13T16:38:53.908Z,0.60
2023-03-13T16:41:24.428Z,0.50
2023-03-13T16:43:52.986Z,0.52
2023-03-13T16:46:27.094Z,0.40
2023-03-13T16:48:57.138Z,0.50
2023-03-13T16:51:28.053Z,0.60
2023-03-13T16:54:00.264Z,0.90
2023-03-13T16:56:33.720Z,0.82
2023-03-13T16:59:03.612Z,0.80
2023-03-13T17:01:35.167Z,0.98
2023-03-13T17:04:03.874Z,0.77
2023-03-13T17:06:35.956Z,0.70
2023-03-13T17:09:06.624Z,0.65
2023-03-13T17:11:34.969Z,0.60
2023-03-13T17:14:03.968Z,0.50
2023-03-13T17:16:36.243Z,0.70
2023-03-13T17:19:06.684Z,0.60
2023-03-13T17:21:36.660Z,0.60
2023-03-13T17:24:07.086Z,0.70
2023-03-13T17:26:38.058Z,0.70
2023-03-13T17:29:08.200Z,0.77
2023-03-13T17:31:38.634Z,0.80
2023-03-13T17:34:07.544Z,0.70
2023-03-13T17:36:36.245Z,0.90
2023-03-13T17:39:08.762Z,0.93
2023-03-13T17:41:37.566Z,0.82
2023-03-13T17:44:07.280Z,0.70
2023-03-13T17:46:39.659Z,0.70
2023-03-13T17:49:08.713Z,0.70
2023-03-13T17:51:37.636Z,1.02
2023-03-13T17:54:06.264Z,1.05
2023-03-13T17:56:39.104Z,1.10
2023-03-13T17:59:11.879Z,1.30
2023-03-13T18:01:42.199Z,0.97
2023-03-13T18:04:11.579Z,1.40
2023-03-13T18:06:42.847Z,1.40
2023-03-13T18:09:17.585Z,2.10
2023-03-13T18:11:46.860Z,1.98
2023-03-13T18:14:15.729Z,1.60
2023-03-13T18:16:48.336Z,1.30
2023-03-13T18:19:22.315Z,1.30
2023-03-13T18:21:53.505Z,0.93
2023-03-13T18:24:22.337Z,1.10
2023-03-13T18:26:51.594Z,1.33
2023-03-13T18:29:26.441Z,1.30
2023-03-13T18:31:58.821Z,2.10
2023-03-13T18:34:27.933Z,3.03
2023-03-13T18:36:57.066Z,2.60
2023-03-13T18:39:25.444Z,2.50
2023-03-13T18:41:54.137Z,2.90
2023-03-13T18:44:23.059Z,2.67
2023-03-13T18:46:54.553Z,2.40
2023-03-13T18:49:24.927Z,1.40
2023-03-13T18:51:54.538Z,1.47
2023-03-13T18:54:22.879Z,1.40
2023-03-13T18:56:51.247Z,1.33
2023-03-13T18:59:22.625Z,1.70
2023-03-13T19:01:51.469Z,2.20
2023-03-13T19:04:20.803Z,2.20
2023-03-13T19:06:51.175Z,2.23
2023-03-13T19:09:42.353Z,3.17
2023-03-13T19:12:12.624Z,3.90
2023-03-13T19:14:41.354Z,5.57
2023-03-13T19:17:17.940Z,9.27
2023-03-13T19:19:46.356Z,9.67
2023-03-13T19:22:16.061Z,5.30
2023-03-13T19:24:46.182Z,4.70
2023-03-13T19:27:17.035Z,2.40
2023-03-13T19:29:47.201Z,1.70
2023-03-13T19:32:17.089Z,1.23
2023-03-13T19:34:45.837Z,1.43
2023-03-13T19:37:18.900Z,1.17
2023-03-13T19:39:47.475Z,1.03
2023-03-13T19:42:15.842Z,1.00
2023-03-13T19:44:44.408Z,0.90
2023-03-13T19:47:15.971Z,0.97
2023-03-13T19:49:45.539Z,0.70
2023-03-13T19:52:17.574Z,0.90
2023-03-13T19:54:45.994Z,0.90
2023-03-13T19:57:14.362Z,0.60
2023-03-13T19:59:42.756Z,0.87
2023-03-13T20:02:12.691Z,1.30
2023-03-13T20:04:43.383Z,1.40
2023-03-13T20:07:11.785Z,1.23
2023-03-13T20:09:41.595Z,1.03
2023-03-13T20:12:10.011Z,1.00
2023-03-13T20:14:38.732Z,0.67
2023-03-13T20:17:07.227Z,0.93
2023-03-13T20:19:36.291Z,0.80
2023-03-13T20:22:05.326Z,0.97
2023-03-13T20:24:34.490Z,0.80
2023-03-13T20:27:04.715Z,0.70
2023-03-13T20:29:33.853Z,0.50
2023-03-13T20:32:04.585Z,0.57
2023-03-13T20:34:33.470Z,0.80
2023-03-13T20:37:02.559Z,0.50
2023-03-13T20:39:31.508Z,0.60
2023-03-13T20:42:02.581Z,0.60
2023-03-13T20:44:32.762Z,0.73
2023-03-13T20:47:01.263Z,0.70
2023-03-13T20:49:29.904Z,0.67
2023-03-13T20:51:58.293Z,0.63
2023-03-13T20:54:26.703Z,0.50
2023-03-13T20:56:55.469Z,0.80
2023-03-13T20:59:23.880Z,0.50
2023-03-13T21:01:53.626Z,1.13
2023-03-13T21:04:22.151Z,1.07
2023-03-13T21:06:50.646Z,0.60
2023-03-13T21:09:19.071Z,0.53
2023-03-13T21:11:47.366Z,0.40
2023-03-13T21:14:15.693Z,0.60
2023-03-13T21:16:43.993Z,0.63
2023-03-13T21:19:13.939Z,0.50
2023-03-13T21:21:42.244Z,0.60
2023-03-13T21:24:11.318Z,0.77
2023-03-13T21:26:39.852Z,0.60
2023-03-13T21:29:09.971Z,0.57
2023-03-13T21:31:39.490Z,0.33
2023-03-13T21:34:08.432Z,0.47
2023-03-13T21:36:38.245Z,0.50
2023-03-13T21:39:08.539Z,0.50
2023-03-13T21:41:37.012Z,0.30
2023-03-13T21:44:05.481Z,0.30
2023-03-13T21:46:34.112Z,0.40
2023-03-13T21:49:03.173Z,0.50
2023-03-13T21:51:31.551Z,0.63
2023-03-13T21:54:01.215Z,0.50
2023-03-13T21:56:29.581Z,0.40
2023-03-13T21:58:57.862Z,0.50
2023-03-13T22:01:26.214Z,0.50
2023-03-13T22:03:54.623Z,0.40
2023-03-13T22:06:23.700Z,0.40
2023-03-13T22:08:52.775Z,0.40
2023-03-13T22:11:22.622Z,0.40
2023-03-13T22:13:51.570Z,0.33
2023-03-13T22:16:21.039Z,0.50
2023-03-13T22:18:49.353Z,0.30
2023-03-13T22:21:17.715Z,0.30
2023-03-13T22:23:46.556Z,0.40
2023-03-13T22:26:15.953Z,0.30
2023-03-13T22:28:45.637Z,0.50
2023-03-13T22:31:14.173Z,0.40
2023-03-13T22:33:42.589Z,0.40
2023-03-13T22:36:12.175Z,0.40
2023-03-13T22:38:40.651Z,0.47
2023-03-13T22:41:13.323Z,0.40
2023-03-13T22:43:41.787Z,0.40
2023-03-13T22:46:12.413Z,0.37
2023-03-13T22:48:40.924Z,0.43
2023-03-13T22:51:11.374Z,0.33
2023-03-13T22:53:42.357Z,0.40
2023-03-13T22:56:12.461Z,0.47
2023-03-13T22:58:42.154Z,0.33
2023-03-13T23:01:14.938Z,0.20
2023-03-13T23:03:43.521Z,0.33
2023-03-13T23:06:17.771Z,0.40
2023-03-13T23:08:46.558Z,0.40
2023-03-13T23:11:14.981Z,0.50
2023-03-13T23:13:43.290Z,0.40
2023-03-13T23:16:14.180Z,0.47
2023-03-13T23:18:43.112Z,0.60
2023-03-13T23:21:14.257Z,0.57
2023-03-13T23:23:44.257Z,0.50
2023-03-13T23:26:16.421Z,0.47
2023-03-13T23:28:44.849Z,0.57
2023-03-13T23:31:17.594Z,0.60
2023-03-13T23:33:46.857Z,0.50
2023-03-13T23:36:18.759Z,0.60
2023-03-13T23:38:51.515Z,0.40
2023-03-13T23:41:21.060Z,0.60
2023-03-13T23:43:49.360Z,0.60
2023-03-13T23:46:21.160Z,0.40
2023-03-13T23:48:49.805Z,0.70
2023-03-13T23:51:18.135Z,0.60
2023-03-13T23:53:46.454Z,0.60
2023-03-13T23:56:15.349Z,0.50
2023-03-13T23:58:44.008Z,0.57
